createdAt,value
2019-03-05T00:01:02.494Z,5.90
2019-03-05T00:03:32.561Z,5.80
2019-03-05T00:06:02.559Z,5.80
2019-03-05T00:08:32.584Z,5.70
2019-03-05T00:11:02.587Z,5.60
2019-03-05T00:13:32.678Z,5.60
2019-03-05T00:16:02.764Z,5.60
2019-03-05T00:18:32.854Z,5.60
2019-03-05T00:21:03.103Z,5.60
2019-03-05T00:23:57.901Z,5.70
2019-03-05T00:26:31.615Z,5.70
2019-03-05T00:29:24.303Z,5.70
2019-03-05T00:31:54.355Z,5.70
2019-03-05T00:35:09.105Z,5.60
2019-03-05T00:38:13.276Z,5.60
2019-03-05T00:40:56.732Z,5.60
2019-03-05T00:43:55.924Z,5.50
2019-03-05T00:46:51.154Z,5.40
2019-03-05T00:49:36.189Z,5.40
2019-03-05T00:52:37.626Z,5.40
2019-03-05T00:55:51.895Z,5.40
2019-03-05T00:58:41.514Z,5.40
2019-03-05T01:01:48.059Z,5.30
2019-03-05T01:05:14.566Z,5.30
2019-03-05T01:07:44.549Z,5.40
2019-03-05T01:10:15.930Z,5.50
2019-03-05T01:12:46.069Z,5.50
2019-03-05T01:15:16.163Z,5.50
2019-03-05T01:17:46.264Z,5.40
2019-03-05T01:20:16.745Z,5.50
2019-03-05T01:22:46.789Z,5.50
2019-03-05T01:25:28.025Z,5.50
2019-03-05T01:27:58.129Z,5.50
2019-03-05T01:30:43.974Z,5.60
2019-03-05T01:33:15.092Z,5.70
2019-03-05T01:35:52.916Z,5.80
2019-03-05T01:38:22.923Z,5.90
2019-03-05T01:40:57.131Z,6.00
2019-03-05T01:43:27.200Z,6.00
2019-03-05T01:45:57.313Z,6.00
2019-03-05T01:48:27.328Z,5.90
2019-03-05T01:50:57.349Z,5.70
2019-03-05T01:53:27.334Z,5.60
2019-03-05T01:55:57.436Z,5.50
2019-03-05T01:58:27.425Z,5.30
2019-03-05T02:00:57.441Z,5.20
2019-03-05T02:03:27.905Z,5.10
2019-03-05T02:05:58.197Z,5.10
2019-03-05T02:08:28.345Z,5.00
2019-03-05T02:10:58.433Z,5.00
2019-03-05T02:13:30.110Z,5.00
2019-03-05T02:16:00.489Z,4.90
2019-03-05T02:18:30.501Z,4.90
2019-03-05T02:21:00.483Z,4.90
2019-03-05T02:24:01.633Z,5.00
2019-03-05T02:27:09.492Z,5.00
2019-03-05T02:30:01.467Z,5.00
2019-03-05T02:33:12.859Z,5.00
2019-03-05T02:35:59.467Z,5.00
2019-03-05T02:39:20.079Z,5.10
2019-03-05T02:42:37.541Z,5.10
2019-03-05T02:45:39.396Z,5.20
2019-03-05T02:48:35.744Z,5.40
2019-03-05T02:51:43.558Z,5.50
2019-03-05T02:54:56.789Z,5.60
2019-03-05T02:57:25.195Z,5.70
2019-03-05T02:59:55.220Z,5.70
2019-03-05T03:02:37.011Z,5.70
2019-03-05T03:05:15.112Z,5.70
2019-03-05T03:07:45.177Z,5.70
2019-03-05T03:10:20.907Z,5.70
2019-03-05T03:12:50.924Z,5.70
2019-03-05T03:15:21.000Z,5.70
2019-03-05T03:17:52.845Z,5.80
2019-03-05T03:20:24.053Z,5.80
2019-03-05T03:22:54.176Z,5.70
2019-03-05T03:25:24.721Z,5.70
2019-03-05T03:27:54.805Z,5.70
2019-03-05T03:30:26.210Z,5.70
2019-03-05T03:32:57.970Z,5.80
2019-03-05T03:35:28.469Z,5.80
2019-03-05T03:38:00.840Z,5.80
2019-03-05T03:40:30.849Z,5.80
2019-03-05T03:43:00.860Z,5.80
2019-03-05T03:45:31.821Z,5.90
2019-03-05T03:48:02.284Z,5.90
2019-03-05T03:50:32.283Z,5.90
2019-03-05T03:53:02.437Z,6.00
2019-03-05T03:55:32.658Z,6.00
2019-03-05T03:58:02.809Z,5.90
2019-03-05T04:00:32.825Z,5.90
2019-03-05T04:03:02.925Z,6.00
2019-03-05T04:05:32.940Z,6.00
2019-03-05T04:08:02.960Z,6.00
2019-03-05T04:10:32.990Z,6.00
2019-03-05T04:13:03.087Z,5.90
2019-03-05T04:15:33.127Z,5.90
2019-03-05T04:18:03.182Z,5.80
2019-03-05T04:20:53.259Z,5.60
2019-03-05T04:23:23.356Z,5.50
2019-03-05T04:25:53.744Z,5.40
2019-03-05T04:28:23.863Z,5.30
2019-03-05T04:30:53.935Z,5.20
2019-03-05T04:33:24.043Z,5.20
2019-03-05T04:35:54.040Z,5.10
2019-03-05T04:38:24.072Z,5.10
2019-03-05T04:40:55.908Z,5.10
2019-03-05T04:43:25.914Z,5.20
2019-03-05T04:46:02.795Z,5.10
2019-03-05T04:48:32.793Z,5.20
2019-03-05T04:51:06.442Z,5.20
2019-03-05T04:53:36.487Z,5.10
2019-03-05T04:56:06.533Z,5.20
2019-03-05T04:58:36.516Z,5.10
2019-03-05T05:01:06.566Z,5.10
2019-03-05T05:03:36.634Z,5.10
2019-03-05T05:06:07.443Z,5.00
2019-03-05T05:08:38.918Z,5.00
2019-03-05T05:11:08.955Z,4.90
2019-03-05T05:13:40.654Z,4.90
2019-03-05T05:16:10.754Z,4.80
2019-03-05T05:18:40.767Z,4.80
2019-03-05T05:21:10.897Z,4.80
2019-03-05T05:23:40.918Z,4.70
2019-03-05T05:26:10.997Z,4.70
2019-03-05T05:28:41.475Z,4.70
2019-03-05T05:31:11.465Z,4.70
2019-03-05T05:33:41.585Z,4.60
2019-03-05T05:36:12.059Z,4.60
2019-03-05T05:38:42.079Z,4.60
2019-03-05T05:41:12.186Z,4.60
2019-03-05T05:43:42.523Z,4.60
2019-03-05T05:46:12.525Z,4.60
2019-03-05T05:48:42.589Z,4.60
2019-03-05T05:51:12.577Z,4.60
2019-03-05T05:53:42.610Z,4.60
2019-03-05T05:56:12.609Z,4.60
2019-03-05T05:58:42.739Z,4.70
2019-03-05T06:01:13.712Z,4.70
2019-03-05T06:03:43.709Z,4.70
2019-03-05T06:06:13.699Z,4.70
2019-03-05T06:08:43.735Z,4.70
2019-03-05T06:11:13.721Z,4.70
2019-03-05T06:13:43.770Z,4.70
2019-03-05T06:16:14.250Z,4.70
2019-03-05T06:18:44.273Z,4.70
2019-03-05T06:21:14.418Z,4.70
2019-03-05T06:23:44.559Z,4.70
2019-03-05T06:26:14.549Z,4.70
2019-03-05T06:28:44.562Z,4.70
2019-03-05T06:31:14.565Z,4.70
2019-03-05T06:33:44.587Z,4.70
2019-03-05T06:36:14.659Z,4.70
2019-03-05T06:38:44.917Z,4.80
2019-03-05T06:41:15.029Z,4.80
2019-03-05T06:43:45.103Z,4.90
2019-03-05T06:46:15.086Z,4.90
2019-03-05T06:48:45.098Z,4.90
2019-03-05T06:51:15.095Z,5.00
2019-03-05T06:53:45.110Z,5.00
2019-03-05T06:56:15.201Z,5.10
2019-03-05T06:58:45.231Z,5.20
2019-03-05T07:01:15.312Z,5.20
2019-03-05T07:03:45.325Z,5.20
2019-03-05T07:06:52.727Z,5.30
2019-03-05T07:09:35.463Z,5.20
2019-03-05T07:12:10.656Z,5.30
2019-03-05T07:15:26.619Z,5.30
2019-03-05T07:18:01.496Z,5.40
2019-03-05T07:21:05.047Z,5.50
2019-03-05T07:24:09.202Z,5.60
2019-03-05T07:26:39.360Z,5.60
2019-03-05T07:29:09.357Z,5.70
2019-03-05T07:31:39.416Z,5.80
2019-03-05T07:34:15.711Z,5.90
2019-03-05T07:36:46.293Z,6.00
2019-03-05T07:39:21.624Z,6.10
2019-03-05T07:41:51.653Z,6.10
2019-03-05T07:44:21.773Z,6.10
2019-03-05T07:46:51.929Z,6.10
2019-03-05T07:49:22.100Z,6.20
2019-03-05T07:51:52.201Z,6.10
2019-03-05T07:54:22.216Z,6.20
2019-03-05T07:56:52.270Z,6.20
2019-03-05T07:59:22.619Z,6.20
2019-03-05T08:01:52.937Z,6.20
2019-03-05T08:04:25.310Z,6.30
2019-03-05T08:06:55.325Z,6.50
2019-03-05T08:09:32.926Z,6.70
2019-03-05T08:12:42.759Z,6.70
2019-03-05T08:15:37.730Z,6.80
2019-03-05T08:18:07.932Z,6.80
2019-03-05T08:20:37.969Z,6.90
2019-03-05T08:23:08.557Z,7.00
2019-03-05T08:25:38.551Z,7.00
2019-03-05T08:28:08.724Z,7.10
2019-03-05T08:30:38.935Z,7.10
2019-03-05T08:33:09.018Z,7.20
2019-03-05T08:35:38.995Z,7.40
2019-03-05T08:38:08.981Z,7.40
2019-03-05T08:40:39.155Z,7.60
2019-03-05T08:43:09.306Z,7.60
2019-03-05T08:45:39.481Z,7.70
2019-03-05T08:48:09.489Z,7.70
2019-03-05T08:50:39.524Z,7.70
2019-03-05T08:53:09.509Z,7.70
2019-03-05T08:55:39.526Z,7.60
2019-03-05T08:58:09.661Z,7.60
2019-03-05T09:00:39.746Z,7.70
2019-03-05T09:03:09.769Z,7.60
2019-03-05T09:05:39.984Z,7.70
2019-03-05T09:08:10.038Z,7.70
2019-03-05T09:10:40.127Z,8.00
2019-03-05T09:13:10.480Z,8.20
2019-03-05T09:15:43.113Z,8.30
2019-03-05T09:18:13.396Z,8.30
2019-03-05T09:20:43.544Z,8.40
2019-03-05T09:23:13.569Z,8.50
2019-03-05T09:25:44.174Z,8.50
2019-03-05T09:28:14.421Z,8.50
2019-03-05T09:30:44.528Z,8.50
2019-03-05T09:33:19.038Z,8.50
2019-03-05T09:35:48.161Z,8.10
2019-03-05T09:38:20.232Z,7.80
2019-03-05T09:40:51.864Z,7.60
2019-03-05T09:43:24.583Z,7.50
2019-03-05T09:45:54.991Z,7.40
2019-03-05T09:48:25.201Z,7.30
2019-03-05T09:50:55.373Z,7.40
2019-03-05T09:53:25.544Z,7.40
2019-03-05T09:55:55.655Z,7.30
2019-03-05T09:58:25.732Z,7.50
2019-03-05T10:00:57.776Z,7.50
2019-03-05T10:03:28.001Z,7.50
2019-03-05T10:05:58.305Z,7.50
2019-03-05T10:08:32.497Z,7.60
2019-03-05T10:11:00.192Z,7.80
2019-03-05T10:13:30.209Z,8.00
2019-03-05T10:16:00.222Z,8.10
2019-03-05T10:18:30.436Z,8.30
2019-03-05T10:21:00.687Z,8.60
2019-03-05T10:23:30.690Z,8.90
2019-03-05T10:26:01.068Z,9.20
2019-03-05T10:28:31.700Z,9.30
2019-03-05T10:31:01.715Z,9.50
2019-03-05T10:33:31.705Z,9.70
2019-03-05T10:36:01.831Z,9.90
2019-03-05T10:38:31.939Z,10.30
2019-03-05T10:41:02.396Z,10.40
2019-03-05T10:43:32.483Z,10.50
2019-03-05T10:46:02.531Z,10.30
2019-03-05T10:48:32.541Z,10.00
2019-03-05T10:51:02.739Z,9.90
2019-03-05T10:53:33.345Z,9.70
2019-03-05T10:56:05.116Z,9.70
2019-03-05T10:58:35.267Z,9.90
2019-03-05T11:01:11.546Z,10.00
2019-03-05T11:03:42.823Z,10.00
2019-03-05T11:06:14.232Z,10.00
2019-03-05T11:08:44.388Z,10.10
2019-03-05T11:11:14.488Z,10.20
2019-03-05T11:13:44.749Z,10.20
2019-03-05T11:16:14.878Z,10.30
2019-03-05T11:18:44.907Z,10.40
2019-03-05T11:21:14.987Z,10.30
2019-03-05T11:23:45.078Z,10.30
2019-03-05T11:26:15.278Z,10.40
2019-03-05T11:28:48.402Z,10.60
2019-03-05T11:31:18.561Z,10.90
2019-03-05T11:33:49.030Z,11.00
2019-03-05T11:36:19.642Z,11.00
2019-03-05T11:38:49.935Z,10.90
2019-03-05T11:41:19.941Z,10.80
2019-03-05T11:43:50.143Z,10.80
2019-03-05T11:46:20.548Z,10.70
2019-03-05T11:48:50.686Z,10.60
2019-03-05T11:51:20.895Z,10.50
2019-03-05T11:53:50.908Z,10.70
2019-03-05T11:56:22.676Z,10.90
2019-03-05T11:58:52.748Z,11.10
2019-03-05T12:01:44.908Z,11.30
2019-03-05T12:04:15.141Z,11.40
2019-03-05T12:06:45.524Z,11.30
2019-03-05T12:09:15.669Z,11.20
2019-03-05T12:11:45.690Z,11.10
2019-03-05T12:14:15.691Z,11.40
2019-03-05T12:16:46.022Z,11.60
2019-03-05T12:19:16.085Z,11.50
2019-03-05T12:21:46.582Z,11.60
2019-03-05T12:24:19.940Z,12.00
2019-03-05T12:26:48.840Z,12.20
2019-03-05T12:29:18.878Z,12.00
2019-03-05T12:31:48.906Z,11.80
2019-03-05T12:34:19.028Z,11.90
2019-03-05T12:36:49.147Z,12.10
2019-03-05T12:39:20.672Z,12.30
2019-03-05T12:41:51.035Z,12.40
2019-03-05T12:44:21.045Z,12.50
2019-03-05T12:46:51.088Z,12.30
2019-03-05T12:49:21.784Z,12.10
2019-03-05T12:51:51.818Z,11.90
2019-03-05T12:54:21.833Z,11.90
2019-03-05T12:56:51.900Z,11.80
2019-03-05T12:59:21.975Z,11.80
2019-03-05T13:01:52.094Z,11.70
2019-03-05T13:04:22.459Z,11.60
2019-03-05T13:06:52.623Z,11.60
2019-03-05T13:09:22.710Z,11.60
2019-03-05T13:11:52.859Z,12.00
2019-03-05T13:14:22.869Z,12.30
2019-03-05T13:16:52.932Z,12.40
2019-03-05T13:19:23.076Z,12.50
2019-03-05T13:21:53.159Z,12.50
2019-03-05T13:24:23.139Z,12.40
2019-03-05T13:26:53.767Z,12.30
2019-03-05T13:29:24.040Z,12.20
2019-03-05T13:31:54.175Z,12.20
2019-03-05T13:34:24.318Z,12.20
2019-03-05T13:36:54.383Z,12.10
2019-03-05T13:39:25.226Z,12.00
2019-03-05T13:41:55.689Z,12.00
2019-03-05T13:44:33.932Z,12.10
2019-03-05T13:47:06.573Z,12.10
2019-03-05T13:50:20.438Z,12.40
2019-03-05T13:53:14.600Z,12.50
2019-03-05T13:56:28.040Z,12.60
2019-03-05T13:59:34.609Z,12.50
2019-03-05T14:02:06.274Z,12.40
2019-03-05T14:04:47.574Z,12.30
2019-03-05T14:07:58.411Z,12.10
2019-03-05T14:10:28.727Z,12.20
2019-03-05T14:12:58.943Z,12.40
2019-03-05T14:15:29.154Z,12.50
2019-03-05T14:17:59.197Z,12.80
2019-03-05T14:20:32.733Z,13.20
2019-03-05T14:23:03.445Z,13.50
2019-03-05T14:25:35.965Z,13.60
2019-03-05T14:28:06.302Z,13.50
2019-03-05T14:30:37.256Z,13.30
2019-03-05T14:33:07.518Z,13.40
2019-03-05T14:35:37.818Z,13.30
2019-03-05T14:38:07.891Z,13.30
2019-03-05T14:40:38.211Z,13.00
2019-03-05T14:43:08.276Z,12.70
2019-03-05T14:45:38.531Z,12.40
2019-03-05T14:48:08.712Z,12.30
2019-03-05T14:50:39.083Z,12.20
2019-03-05T14:53:09.312Z,12.00
2019-03-05T14:55:39.822Z,11.80
2019-03-05T14:58:11.595Z,11.70
2019-03-05T15:00:41.765Z,11.50
2019-03-05T15:03:11.838Z,11.50
2019-03-05T15:05:42.031Z,11.40
2019-03-05T15:08:12.321Z,11.30
2019-03-05T15:10:42.662Z,11.30
2019-03-05T15:13:18.581Z,11.30
2019-03-05T15:15:47.424Z,11.30
2019-03-05T15:18:17.643Z,11.20
2019-03-05T15:20:47.699Z,11.10
2019-03-05T15:23:17.906Z,11.10
2019-03-05T15:25:48.036Z,10.90
2019-03-05T15:28:18.128Z,10.90
2019-03-05T15:30:48.137Z,10.90
2019-03-05T15:33:18.206Z,10.90
2019-03-05T15:35:48.291Z,10.80
2019-03-05T15:38:19.829Z,10.80
2019-03-05T15:40:49.860Z,10.80
2019-03-05T15:43:24.107Z,10.70
2019-03-05T15:45:58.154Z,10.70
2019-03-05T15:48:28.273Z,10.60
2019-03-05T15:50:58.275Z,10.60
2019-03-05T15:53:28.507Z,10.60
2019-03-05T15:55:58.736Z,10.60
2019-03-05T15:58:28.959Z,10.60
2019-03-05T16:00:59.036Z,10.60
2019-03-05T16:03:29.044Z,10.60
2019-03-05T16:05:59.040Z,10.60
2019-03-05T16:08:29.064Z,10.70
2019-03-05T16:10:59.237Z,10.70
2019-03-05T16:13:29.299Z,10.70
2019-03-05T16:15:59.534Z,10.70
2019-03-05T16:18:29.527Z,10.90
2019-03-05T16:21:02.617Z,11.10
2019-03-05T16:23:31.429Z,11.00
2019-03-05T16:26:03.859Z,10.90
2019-03-05T16:28:33.732Z,10.80
2019-03-05T16:31:25.908Z,10.70
2019-03-05T16:34:13.082Z,10.60
2019-03-05T16:37:02.124Z,10.50
2019-03-05T16:39:53.588Z,10.50
2019-03-05T16:42:48.867Z,10.40
2019-03-05T16:45:38.234Z,10.20
2019-03-05T16:48:42.408Z,10.20
2019-03-05T16:51:21.090Z,10.10
2019-03-05T16:54:08.629Z,10.00
2019-03-05T16:57:03.479Z,10.00
2019-03-05T16:59:53.288Z,9.90
2019-03-05T17:02:41.431Z,9.70
2019-03-05T17:05:30.063Z,9.70
2019-03-05T17:08:27.151Z,9.60
2019-03-05T17:11:34.403Z,9.60
2019-03-05T17:14:06.500Z,9.50
2019-03-05T17:16:36.984Z,9.40
2019-03-05T17:19:07.224Z,9.30
2019-03-05T17:21:37.353Z,9.20
2019-03-05T17:24:11.184Z,9.10
2019-03-05T17:26:41.387Z,9.00
2019-03-05T17:29:11.461Z,9.00
2019-03-05T17:31:46.530Z,8.80
2019-03-05T17:34:18.677Z,8.80
2019-03-05T17:36:48.722Z,8.70
2019-03-05T17:39:19.889Z,8.60
2019-03-05T17:41:50.176Z,8.60
2019-03-05T17:44:20.329Z,8.50
2019-03-05T17:46:50.325Z,8.50
2019-03-05T17:49:21.618Z,8.40
2019-03-05T17:51:51.949Z,8.30
2019-03-05T17:54:22.231Z,8.30
2019-03-05T17:56:52.809Z,8.20
2019-03-05T17:59:22.947Z,8.10
2019-03-05T18:01:54.917Z,8.10
2019-03-05T18:04:25.375Z,8.00
2019-03-05T18:06:55.476Z,8.00
2019-03-05T18:09:27.259Z,8.00
2019-03-05T18:11:57.450Z,7.90
2019-03-05T18:14:27.477Z,7.90
2019-03-05T18:16:57.913Z,7.90
2019-03-05T18:19:30.039Z,7.80
2019-03-05T18:22:00.203Z,7.80
2019-03-05T18:24:30.371Z,7.80
2019-03-05T18:27:00.443Z,7.80
2019-03-05T18:29:30.775Z,7.80
2019-03-05T18:32:00.972Z,7.80
2019-03-05T18:34:31.109Z,7.90
2019-03-05T18:37:01.277Z,7.90
2019-03-05T18:39:31.424Z,8.00
2019-03-05T18:42:03.163Z,8.00
2019-03-05T18:44:33.227Z,8.00
2019-03-05T18:47:05.354Z,8.10
2019-03-05T18:49:37.140Z,8.10
2019-03-05T18:52:08.647Z,8.10
2019-03-05T18:54:38.739Z,8.20
2019-03-05T18:57:08.766Z,8.20
2019-03-05T18:59:38.927Z,8.20
2019-03-05T19:02:09.007Z,8.30
2019-03-05T19:04:39.289Z,8.30
2019-03-05T19:07:12.039Z,8.30
2019-03-05T19:09:45.431Z,8.40
2019-03-05T19:12:15.482Z,8.40
2019-03-05T19:14:45.577Z,8.40
2019-03-05T19:17:15.850Z,8.50
2019-03-05T19:19:45.905Z,8.50
2019-03-05T19:22:16.032Z,8.60
2019-03-05T19:24:46.209Z,8.60
2019-03-05T19:27:25.869Z,8.60
2019-03-05T19:29:49.531Z,8.70
2019-03-05T19:32:19.611Z,8.70
2019-03-05T19:34:49.748Z,8.70
2019-03-05T19:37:20.132Z,8.80
2019-03-05T19:39:50.183Z,8.80
2019-03-05T19:42:20.345Z,8.80
2019-03-05T19:44:50.518Z,8.80
2019-03-05T19:47:20.816Z,8.80
2019-03-05T19:49:50.907Z,8.90
2019-03-05T19:52:20.925Z,8.90
2019-03-05T19:54:51.092Z,8.90
2019-03-05T19:57:21.184Z,9.00
2019-03-05T19:59:54.896Z,9.00
2019-03-05T20:02:25.046Z,9.00
2019-03-05T20:04:55.097Z,9.00
2019-03-05T20:07:25.173Z,9.00
2019-03-05T20:09:55.555Z,9.10
2019-03-05T20:12:25.965Z,9.10
2019-03-05T20:14:56.070Z,9.10
2019-03-05T20:17:26.285Z,9.20
2019-03-05T20:19:56.400Z,9.20
2019-03-05T20:22:26.482Z,9.10
2019-03-05T20:24:56.589Z,9.20
2019-03-05T20:27:26.690Z,9.10
2019-03-05T20:29:56.909Z,9.10
2019-03-05T20:32:27.293Z,9.20
2019-03-05T20:34:57.454Z,9.20
2019-03-05T20:37:27.622Z,9.20
2019-03-05T20:39:57.820Z,9.10
2019-03-05T20:42:27.839Z,9.10
2019-03-05T20:44:57.893Z,9.10
2019-03-05T20:47:28.097Z,9.10
2019-03-05T20:49:58.307Z,9.10
2019-03-05T20:52:28.450Z,9.20
2019-03-05T20:54:58.637Z,9.20
2019-03-05T20:57:28.966Z,9.30
2019-03-05T20:59:59.073Z,9.60
2019-03-05T21:02:29.627Z,9.80
2019-03-05T21:04:59.752Z,9.70
2019-03-05T21:07:30.285Z,9.80
2019-03-05T21:10:00.399Z,9.80
2019-03-05T21:12:30.490Z,9.70
2019-03-05T21:15:00.556Z,9.60
2019-03-05T21:17:30.655Z,9.60
2019-03-05T21:20:01.056Z,9.50
2019-03-05T21:22:32.164Z,9.50
2019-03-05T21:25:02.265Z,9.40
2019-03-05T21:27:32.269Z,9.40
2019-03-05T21:30:02.765Z,9.40
2019-03-05T21:32:32.826Z,9.40
2019-03-05T21:35:02.888Z,9.50
2019-03-05T21:37:33.015Z,9.50
2019-03-05T21:40:03.365Z,9.50
2019-03-05T21:42:33.467Z,9.50
2019-03-05T21:45:04.070Z,9.60
2019-03-05T21:47:34.211Z,9.50
2019-03-05T21:50:05.029Z,9.60
2019-03-05T21:52:35.405Z,9.50
2019-03-05T21:55:06.103Z,9.50
2019-03-05T21:57:36.149Z,9.40
2019-03-05T22:00:08.402Z,9.40
2019-03-05T22:02:38.465Z,9.40
2019-03-05T22:05:10.188Z,9.40
2019-03-05T22:07:40.315Z,9.30
2019-03-05T22:10:13.091Z,9.30
2019-03-05T22:12:43.222Z,9.30
2019-03-05T22:15:15.019Z,9.30
2019-03-05T22:17:45.032Z,9.20
2019-03-05T22:20:15.591Z,9.10
2019-03-05T22:22:47.933Z,9.10
2019-03-05T22:25:19.134Z,9.00
2019-03-05T22:27:49.123Z,9.00
2019-03-05T22:30:21.288Z,9.00
2019-03-05T22:32:51.399Z,9.00
2019-03-05T22:35:40.887Z,9.00
2019-03-05T22:38:23.128Z,9.10
2019-03-05T22:41:05.667Z,9.00
2019-03-05T22:43:47.612Z,9.00
2019-03-05T22:46:30.168Z,9.00
2019-03-05T22:49:12.225Z,9.00
2019-03-05T22:51:54.292Z,9.10
2019-03-05T22:54:38.805Z,9.10
2019-03-05T22:57:21.130Z,9.10
2019-03-05T23:00:02.987Z,9.10
2019-03-05T23:02:48.340Z,9.20
2019-03-05T23:05:30.275Z,9.20
2019-03-05T23:08:11.957Z,9.20
2019-03-05T23:10:54.908Z,9.20
2019-03-05T23:13:38.145Z,9.20
2019-03-05T23:16:20.470Z,9.20
2019-03-05T23:19:02.958Z,9.30
2019-03-05T23:21:44.723Z,9.20
2019-03-05T23:24:26.847Z,9.20
2019-03-05T23:27:09.268Z,9.20
2019-03-05T23:29:51.085Z,9.10
2019-03-05T23:32:32.907Z,9.10
2019-03-05T23:35:14.932Z,9.10
2019-03-05T23:37:56.511Z,9.10
2019-03-05T23:40:38.534Z,9.20
2019-03-05T23:43:21.057Z,9.20
2019-03-05T23:46:03.325Z,9.30
2019-03-05T23:48:45.521Z,9.30
2019-03-05T23:51:27.463Z,9.30
2019-03-05T23:53:57.509Z,9.30
2019-03-05T23:56:46.642Z,9.30
2019-03-05T23:59:28.221Z,9.40
